createdAt,value
2022-10-31T00:00:42.269Z,13.10
2022-10-31T00:01:45.891Z,13.10
2022-10-31T00:02:51.201Z,13.10
2022-10-31T00:03:54.172Z,13.10
2022-10-31T00:04:57.441Z,13.10
2022-10-31T00:05:59.877Z,13.10
2022-10-31T00:07:04.569Z,13.10
2022-10-31T00:08:06.807Z,13.10
2022-10-31T00:09:12.777Z,13.10
2022-10-31T00:10:15.243Z,13.10
2022-10-31T00:11:18.602Z,13.10
2022-10-31T00:12:20.898Z,13.10
2022-10-31T00:13:24.204Z,13.10
2022-10-31T00:14:26.516Z,13.10
2022-10-31T00:15:32.438Z,13.10
2022-10-31T00:16:34.957Z,13.10
2022-10-31T00:17:39.412Z,13.10
2022-10-31T00:18:44.871Z,13.10
2022-10-31T00:19:49.865Z,13.10
2022-10-31T00:21:00.793Z,13.10
2022-10-31T00:22:05.793Z,13.10
2022-10-31T00:23:08.321Z,13.10
2022-10-31T00:24:13.146Z,13.10
2022-10-31T00:25:15.625Z,13.10
2022-10-31T00:26:19.510Z,13.10
2022-10-31T00:27:21.819Z,13.10
2022-10-31T00:28:25.014Z,13.10
2022-10-31T00:29:27.359Z,13.10
2022-10-31T00:30:30.682Z,13.00
2022-10-31T00:31:33.191Z,13.00
2022-10-31T00:32:37.685Z,13.00
2022-10-31T00:33:42.417Z,13.00
2022-10-31T00:34:45.725Z,13.00
2022-10-31T00:35:51.345Z,13.00
2022-10-31T00:36:54.691Z,13.00
2022-10-31T00:37:58.314Z,13.00
2022-10-31T00:39:02.340Z,13.00
2022-10-31T00:40:06.367Z,13.00
2022-10-31T00:41:10.082Z,13.00
2022-10-31T00:42:14.390Z,12.90
2022-10-31T00:43:19.892Z,12.90
2022-10-31T00:44:22.396Z,12.90
2022-10-31T00:45:26.022Z,12.90
2022-10-31T00:46:29.129Z,12.90
2022-10-31T00:47:32.405Z,12.90
2022-10-31T00:48:35.076Z,12.90
2022-10-31T00:49:40.713Z,12.90
2022-10-31T00:50:43.741Z,12.90
2022-10-31T00:51:47.822Z,12.90
2022-10-31T00:52:50.345Z,12.80
2022-10-31T00:53:55.366Z,12.80
2022-10-31T00:54:57.774Z,12.80
2022-10-31T00:56:01.639Z,12.80
2022-10-31T00:57:04.454Z,12.80
2022-10-31T00:58:07.886Z,12.80
2022-10-31T00:59:13.628Z,12.80
2022-10-31T01:00:18.960Z,12.80
2022-10-31T01:01:22.045Z,12.80
2022-10-31T01:02:26.491Z,12.70
2022-10-31T01:03:31.725Z,12.70
2022-10-31T01:04:37.053Z,12.70
2022-10-31T01:05:39.567Z,12.70
2022-10-31T01:06:43.160Z,12.70
2022-10-31T01:07:45.480Z,12.70
2022-10-31T01:08:51.360Z,12.70
2022-10-31T01:09:55.823Z,12.70
2022-10-31T01:11:06.564Z,12.70
2022-10-31T01:12:11.481Z,12.70
2022-10-31T01:13:16.667Z,12.70
2022-10-31T01:14:21.234Z,12.60
2022-10-31T01:15:25.886Z,12.60
2022-10-31T01:16:31.853Z,12.60
2022-10-31T01:17:35.176Z,12.60
2022-10-31T01:18:39.708Z,12.60
2022-10-31T01:19:45.354Z,12.60
2022-10-31T01:20:47.636Z,12.60
2022-10-31T01:21:51.000Z,12.60
2022-10-31T01:22:53.306Z,12.60
2022-10-31T01:24:02.973Z,12.60
2022-10-31T01:25:10.028Z,12.50
2022-10-31T01:26:16.025Z,12.50
2022-10-31T01:27:18.492Z,12.50
2022-10-31T01:28:23.089Z,12.50
2022-10-31T01:29:25.618Z,12.50
2022-10-31T01:30:28.926Z,12.50
2022-10-31T01:31:34.735Z,12.50
2022-10-31T01:32:38.000Z,12.50
2022-10-31T01:33:42.534Z,12.40
2022-10-31T01:34:45.965Z,12.40
2022-10-31T01:35:49.534Z,12.40
2022-10-31T01:36:53.172Z,12.40
2022-10-31T01:37:55.650Z,12.40
2022-10-31T01:39:01.857Z,12.30
2022-10-31T01:40:07.339Z,12.30
2022-10-31T01:41:14.377Z,12.30
2022-10-31T01:42:22.188Z,12.30
2022-10-31T01:43:25.532Z,12.30
2022-10-31T01:44:58.158Z,12.30
2022-10-31T01:46:02.561Z,12.20
2022-10-31T01:47:09.096Z,12.20
2022-10-31T01:48:15.959Z,12.20
2022-10-31T01:49:24.756Z,12.20
2022-10-31T01:50:37.166Z,12.20
2022-10-31T01:51:47.388Z,12.10
2022-10-31T01:52:54.084Z,12.10
2022-10-31T01:54:03.560Z,12.10
2022-10-31T01:55:12.152Z,12.10
2022-10-31T01:56:18.699Z,12.10
2022-10-31T01:57:25.963Z,12.10
2022-10-31T01:58:33.179Z,12.10
2022-10-31T01:59:40.426Z,12.10
2022-10-31T02:00:52.446Z,12.00
2022-10-31T02:01:59.191Z,12.00
2022-10-31T02:03:04.814Z,12.00
2022-10-31T02:04:08.723Z,12.00
2022-10-31T02:05:18.128Z,12.00
2022-10-31T02:06:35.204Z,12.00
2022-10-31T02:07:46.919Z,12.00
2022-10-31T02:08:50.687Z,11.90
2022-10-31T02:09:57.957Z,11.90
2022-10-31T02:11:03.568Z,11.90
2022-10-31T02:12:07.685Z,11.90
2022-10-31T02:13:12.084Z,11.90
2022-10-31T02:14:26.782Z,11.80
2022-10-31T02:15:32.650Z,11.80
2022-10-31T02:16:34.975Z,11.80
2022-10-31T02:17:43.499Z,11.80
2022-10-31T02:18:45.897Z,11.80
2022-10-31T02:20:03.734Z,11.80
2022-10-31T02:21:18.735Z,11.80
2022-10-31T02:22:28.312Z,11.80
2022-10-31T02:24:28.479Z,11.70
2022-10-31T02:25:57.526Z,11.70
2022-10-31T02:27:30.553Z,11.70
2022-10-31T02:28:54.020Z,11.60
2022-10-31T02:30:17.630Z,11.60
2022-10-31T02:31:34.645Z,11.60
2022-10-31T02:33:02.688Z,11.60
2022-10-31T02:34:18.749Z,11.60
2022-10-31T02:35:44.009Z,11.50
2022-10-31T02:36:58.984Z,11.50
2022-10-31T02:38:15.237Z,11.50
2022-10-31T02:39:25.193Z,11.50
2022-10-31T02:40:35.020Z,11.50
2022-10-31T02:42:09.844Z,11.40
2022-10-31T02:43:21.299Z,11.40
2022-10-31T02:44:31.943Z,11.40
2022-10-31T02:45:43.888Z,11.40
2022-10-31T02:46:54.858Z,11.40
2022-10-31T02:48:04.406Z,11.40
2022-10-31T02:49:15.228Z,11.40
2022-10-31T02:50:23.063Z,11.40
2022-10-31T02:51:26.537Z,11.40
2022-10-31T02:52:31.173Z,11.40
2022-10-31T02:53:40.591Z,11.40
2022-10-31T02:54:47.450Z,11.30
2022-10-31T02:56:01.350Z,11.30
2022-10-31T02:57:08.232Z,11.30
2022-10-31T02:58:16.231Z,11.30
2022-10-31T02:59:22.826Z,11.30
2022-10-31T03:00:25.907Z,11.30
2022-10-31T03:01:58.836Z,11.40
2022-10-31T03:03:08.561Z,11.30
2022-10-31T03:05:17.818Z,11.30
2022-10-31T03:06:28.959Z,11.30
2022-10-31T03:07:44.146Z,11.30
2022-10-31T03:08:56.900Z,11.30
2022-10-31T03:10:15.101Z,11.30
2022-10-31T03:11:24.361Z,11.30
2022-10-31T03:12:34.905Z,11.30
2022-10-31T03:13:45.210Z,11.30
2022-10-31T03:14:56.363Z,11.30
2022-10-31T03:16:11.377Z,11.20
2022-10-31T03:17:24.179Z,11.20
2022-10-31T03:18:33.545Z,11.20
2022-10-31T03:19:42.710Z,11.20
2022-10-31T03:20:53.224Z,11.20
2022-10-31T03:22:02.016Z,11.20
2022-10-31T03:23:07.396Z,11.20
2022-10-31T03:24:12.521Z,11.20
2022-10-31T03:25:17.753Z,11.20
2022-10-31T03:26:23.765Z,11.20
2022-10-31T03:27:30.923Z,11.20
2022-10-31T03:28:42.696Z,11.20
2022-10-31T03:29:46.677Z,11.20
2022-10-31T03:30:54.236Z,11.20
2022-10-31T03:32:02.896Z,11.20
2022-10-31T03:33:12.138Z,11.20
2022-10-31T03:34:17.795Z,11.20
2022-10-31T03:35:24.634Z,11.20
2022-10-31T03:36:30.537Z,11.20
2022-10-31T03:37:37.511Z,11.20
2022-10-31T03:38:43.394Z,11.20
2022-10-31T03:39:49.548Z,11.20
2022-10-31T03:40:56.155Z,11.20
2022-10-31T03:42:06.089Z,11.20
2022-10-31T03:44:27.632Z,11.20
2022-10-31T03:45:42.572Z,11.20
2022-10-31T03:46:48.620Z,11.20
2022-10-31T03:47:53.998Z,11.20
2022-10-31T03:48:59.109Z,11.20
2022-10-31T03:50:03.375Z,11.20
2022-10-31T03:51:15.579Z,11.20
2022-10-31T03:52:28.602Z,11.20
2022-10-31T03:53:36.999Z,11.20
2022-10-31T03:54:45.396Z,11.20
2022-10-31T03:55:57.979Z,11.20
2022-10-31T03:57:07.865Z,11.20
2022-10-31T03:58:17.315Z,11.20
2022-10-31T03:59:25.836Z,11.20
2022-10-31T04:00:29.388Z,11.20
2022-10-31T04:01:35.773Z,11.20
2022-10-31T04:02:48.571Z,11.20
2022-10-31T04:03:51.524Z,11.20
2022-10-31T04:04:56.446Z,11.20
2022-10-31T04:06:05.152Z,11.20
2022-10-31T04:07:12.937Z,11.10
2022-10-31T04:08:20.420Z,11.10
2022-10-31T04:09:26.241Z,11.10
2022-10-31T04:10:32.983Z,11.10
2022-10-31T04:11:42.733Z,11.10
2022-10-31T04:13:09.387Z,11.10
2022-10-31T04:14:20.333Z,11.10
2022-10-31T04:15:28.137Z,11.10
2022-10-31T04:16:31.925Z,11.10
2022-10-31T04:17:40.125Z,11.10
2022-10-31T04:18:43.651Z,11.10
2022-10-31T04:19:46.336Z,11.10
2022-10-31T04:20:51.921Z,11.10
2022-10-31T04:21:54.286Z,11.10
2022-10-31T04:22:57.578Z,11.10
2022-10-31T04:24:01.568Z,11.10
2022-10-31T04:25:08.073Z,11.10
2022-10-31T04:26:14.232Z,11.10
2022-10-31T04:27:19.790Z,11.10
2022-10-31T04:28:23.151Z,11.10
2022-10-31T04:29:28.790Z,11.10
2022-10-31T04:30:33.782Z,11.10
2022-10-31T04:31:37.196Z,11.10
2022-10-31T04:32:39.582Z,11.10
2022-10-31T04:33:44.117Z,11.10
2022-10-31T04:34:47.316Z,11.10
2022-10-31T04:35:51.976Z,11.10
2022-10-31T04:36:55.572Z,11.10
2022-10-31T04:37:57.829Z,11.10
2022-10-31T04:39:03.650Z,11.10
2022-10-31T04:40:16.891Z,11.10
2022-10-31T04:41:49.500Z,11.10
2022-10-31T04:42:51.861Z,11.10
2022-10-31T04:43:56.380Z,11.10
2022-10-31T04:44:59.190Z,11.10
2022-10-31T04:46:03.512Z,11.10
2022-10-31T04:47:06.173Z,11.10
2022-10-31T04:48:09.537Z,11.10
2022-10-31T04:49:16.731Z,11.10
2022-10-31T04:50:19.429Z,11.10
2022-10-31T04:51:24.138Z,11.10
2022-10-31T04:52:27.085Z,11.00
2022-10-31T04:53:31.094Z,11.00
2022-10-31T04:55:14.125Z,11.00
2022-10-31T04:56:35.546Z,11.00
2022-10-31T04:57:48.206Z,11.00
2022-10-31T04:58:51.166Z,11.00
2022-10-31T04:59:55.304Z,11.00
2022-10-31T05:00:59.291Z,10.90
2022-10-31T05:02:03.371Z,10.90
2022-10-31T05:03:28.117Z,10.90
2022-10-31T05:04:31.857Z,10.90
2022-10-31T05:05:36.509Z,10.90
2022-10-31T05:06:41.930Z,10.90
2022-10-31T05:07:47.360Z,10.80
2022-10-31T05:08:50.672Z,10.80
2022-10-31T05:09:53.118Z,10.80
2022-10-31T05:11:01.661Z,10.80
2022-10-31T05:12:06.980Z,10.80
2022-10-31T05:13:29.076Z,10.80
2022-10-31T05:14:52.384Z,10.80
2022-10-31T05:16:14.514Z,10.70
2022-10-31T05:17:39.715Z,10.70
2022-10-31T05:19:15.312Z,10.70
2022-10-31T05:20:51.330Z,10.70
2022-10-31T05:22:05.095Z,10.70
2022-10-31T05:23:10.133Z,10.70
2022-10-31T05:24:12.709Z,10.60
2022-10-31T05:25:19.190Z,10.60
2022-10-31T05:26:29.714Z,10.60
2022-10-31T05:27:32.248Z,10.60
2022-10-31T05:28:35.644Z,10.60
2022-10-31T05:29:39.227Z,10.60
2022-10-31T05:30:44.592Z,10.60
2022-10-31T05:31:50.438Z,10.60
2022-10-31T05:33:28.908Z,10.60
2022-10-31T05:34:50.272Z,10.60
2022-10-31T05:36:12.113Z,10.50
2022-10-31T05:37:22.122Z,10.50
2022-10-31T05:38:25.650Z,10.50
2022-10-31T05:39:29.571Z,10.50
2022-10-31T05:40:37.519Z,10.50
2022-10-31T05:41:39.918Z,10.50
2022-10-31T05:42:53.729Z,10.50
2022-10-31T05:43:57.615Z,10.40
2022-10-31T05:45:05.696Z,10.40
2022-10-31T05:46:21.397Z,10.40
2022-10-31T05:47:57.925Z,10.40
2022-10-31T05:49:35.753Z,10.40
2022-10-31T05:51:15.464Z,10.40
2022-10-31T05:52:18.030Z,10.40
2022-10-31T05:53:29.869Z,10.40
2022-10-31T05:54:32.188Z,10.40
2022-10-31T05:55:35.667Z,10.40
2022-10-31T05:56:41.544Z,10.40
2022-10-31T05:57:45.002Z,10.40
2022-10-31T05:58:47.378Z,10.40
2022-10-31T05:59:55.025Z,10.40
2022-10-31T06:00:59.222Z,10.40
2022-10-31T06:02:02.710Z,10.50
2022-10-31T06:03:28.676Z,10.50
2022-10-31T06:04:32.616Z,10.50
2022-10-31T06:05:39.812Z,10.50
2022-10-31T06:06:42.297Z,10.50
2022-10-31T06:07:48.113Z,10.50
2022-10-31T06:08:52.386Z,10.50
2022-10-31T06:09:58.919Z,10.50
2022-10-31T06:11:01.309Z,10.50
2022-10-31T06:12:27.664Z,10.50
2022-10-31T06:13:48.821Z,10.50
2022-10-31T06:14:59.476Z,10.60
2022-10-31T06:16:02.737Z,10.60
2022-10-31T06:17:10.748Z,10.60
2022-10-31T06:18:20.230Z,10.60
2022-10-31T06:19:24.986Z,10.60
2022-10-31T06:20:28.712Z,10.60
2022-10-31T06:21:39.760Z,10.60
2022-10-31T06:22:43.121Z,10.60
2022-10-31T06:23:45.607Z,10.50
2022-10-31T06:25:13.169Z,10.50
2022-10-31T06:26:20.826Z,10.50
2022-10-31T06:27:25.790Z,10.50
2022-10-31T06:28:30.615Z,10.50
2022-10-31T06:29:46.865Z,10.60
2022-10-31T06:30:59.028Z,10.60
2022-10-31T06:32:02.207Z,10.60
2022-10-31T06:33:07.554Z,10.60
2022-10-31T06:34:13.917Z,10.60
2022-10-31T06:35:20.197Z,10.60
2022-10-31T06:37:30.453Z,10.60
2022-10-31T06:38:39.286Z,10.60
2022-10-31T06:39:45.260Z,10.70
2022-10-31T06:40:52.183Z,10.70
2022-10-31T06:41:59.728Z,10.70
2022-10-31T06:43:04.058Z,10.70
2022-10-31T06:44:08.980Z,10.70
2022-10-31T06:45:32.979Z,10.80
2022-10-31T06:46:50.409Z,10.80
2022-10-31T06:48:18.866Z,10.80
2022-10-31T06:49:57.517Z,10.80
2022-10-31T06:51:03.199Z,10.90
2022-10-31T06:52:06.692Z,10.90
2022-10-31T06:54:18.544Z,11.00
2022-10-31T06:55:23.550Z,11.00
2022-10-31T06:56:27.487Z,11.00
2022-10-31T06:57:35.920Z,11.00
2022-10-31T06:58:38.621Z,11.00
2022-10-31T06:59:44.116Z,11.10
2022-10-31T07:00:46.438Z,11.10
2022-10-31T07:01:50.175Z,11.10
2022-10-31T07:02:59.679Z,11.10
2022-10-31T07:04:01.917Z,11.20
2022-10-31T07:05:09.097Z,11.20
2022-10-31T07:06:11.603Z,11.20
2022-10-31T07:07:16.614Z,11.20
2022-10-31T07:08:19.113Z,11.30
2022-10-31T07:09:22.370Z,11.30
2022-10-31T07:10:27.004Z,11.30
2022-10-31T07:11:37.712Z,11.40
2022-10-31T07:12:39.985Z,11.40
2022-10-31T07:13:43.332Z,11.40
2022-10-31T07:14:45.654Z,11.40
2022-10-31T07:15:51.327Z,11.40
2022-10-31T07:16:54.739Z,11.50
2022-10-31T07:18:10.337Z,11.50
2022-10-31T07:19:14.044Z,11.50
2022-10-31T07:20:17.467Z,11.50
2022-10-31T07:21:20.873Z,11.60
2022-10-31T07:22:23.372Z,11.60
2022-10-31T07:23:26.869Z,11.70
2022-10-31T07:24:47.975Z,11.80
2022-10-31T07:26:11.738Z,11.80
2022-10-31T07:27:20.962Z,12.00
2022-10-31T07:28:26.028Z,12.10
2022-10-31T07:29:30.756Z,12.30
2022-10-31T07:30:34.492Z,12.50
2022-10-31T07:31:37.793Z,12.70
2022-10-31T07:32:48.576Z,13.00
2022-10-31T07:33:53.556Z,13.20
2022-10-31T07:35:19.907Z,13.40
2022-10-31T07:36:23.806Z,13.50
2022-10-31T07:37:30.094Z,13.60
2022-10-31T07:38:35.242Z,13.70
2022-10-31T07:39:40.037Z,13.80
2022-10-31T07:40:44.818Z,14.00
2022-10-31T07:41:47.216Z,14.20
2022-10-31T07:42:55.805Z,14.40
2022-10-31T07:44:25.079Z,14.60
2022-10-31T07:45:51.941Z,15.10
2022-10-31T07:47:14.039Z,15.60
2022-10-31T07:48:36.239Z,16.10
2022-10-31T07:49:57.286Z,16.70
2022-10-31T07:51:19.362Z,17.20
2022-10-31T07:52:45.808Z,17.70
2022-10-31T07:54:28.090Z,18.30
2022-10-31T07:55:31.375Z,18.90
2022-10-31T07:56:35.233Z,19.20
2022-10-31T07:57:38.247Z,19.40
2022-10-31T07:58:42.986Z,19.40
2022-10-31T07:59:45.435Z,19.40
2022-10-31T08:00:50.778Z,19.40
2022-10-31T08:02:04.547Z,19.40
2022-10-31T08:03:10.188Z,19.30
2022-10-31T08:04:36.409Z,19.30
2022-10-31T08:05:59.453Z,19.30
2022-10-31T08:07:22.164Z,19.40
2022-10-31T08:08:36.015Z,19.50
2022-10-31T08:09:44.779Z,19.60
2022-10-31T08:13:08.730Z,20.40
2022-10-31T08:14:18.379Z,20.60
2022-10-31T08:15:21.229Z,20.80
2022-10-31T08:16:24.827Z,20.80
2022-10-31T08:17:35.652Z,20.80
2022-10-31T08:18:39.452Z,20.70
2022-10-31T08:19:45.258Z,20.60
2022-10-31T08:20:51.731Z,20.50
2022-10-31T08:21:56.277Z,20.30
2022-10-31T08:23:01.735Z,20.20
2022-10-31T08:24:04.852Z,20.10
2022-10-31T08:25:10.928Z,20.00
2022-10-31T08:26:14.316Z,19.80
2022-10-31T08:27:16.883Z,19.70
2022-10-31T08:28:20.734Z,19.60
2022-10-31T08:29:26.991Z,19.50
2022-10-31T08:30:33.002Z,19.40
2022-10-31T08:31:56.829Z,19.40
2022-10-31T08:33:20.892Z,19.50
2022-10-31T08:34:42.906Z,19.50
2022-10-31T08:36:12.496Z,19.50
2022-10-31T08:37:39.735Z,19.50
2022-10-31T08:38:43.644Z,19.60
2022-10-31T08:39:47.457Z,19.50
2022-10-31T08:40:51.725Z,19.50
2022-10-31T08:41:54.014Z,19.40
2022-10-31T08:43:02.181Z,19.40
2022-10-31T08:44:05.966Z,19.40
2022-10-31T08:45:12.336Z,19.60
2022-10-31T08:46:16.130Z,19.80
2022-10-31T08:47:19.506Z,19.90
2022-10-31T08:48:25.225Z,20.10
2022-10-31T08:49:27.967Z,20.30
2022-10-31T08:50:33.571Z,20.40
2022-10-31T08:51:37.313Z,20.50
2022-10-31T08:53:03.481Z,20.50
2022-10-31T08:54:04.115Z,20.60
2022-10-31T08:55:09.970Z,20.60
2022-10-31T08:56:49.003Z,20.50
2022-10-31T08:58:14.711Z,20.50
2022-10-31T08:59:24.369Z,20.50
2022-10-31T09:00:51.228Z,20.60
2022-10-31T09:01:56.329Z,20.60
2022-10-31T09:03:00.940Z,20.70
2022-10-31T09:04:06.544Z,20.60
2022-10-31T09:05:13.020Z,20.70
2022-10-31T09:06:15.521Z,20.70
2022-10-31T09:07:21.300Z,20.70
2022-10-31T09:08:25.728Z,20.80
2022-10-31T09:09:31.387Z,20.80
2022-10-31T09:10:37.801Z,20.80
2022-10-31T09:11:40.264Z,20.70
2022-10-31T09:13:07.235Z,20.60
2022-10-31T09:14:29.421Z,20.50
2022-10-31T09:15:54.361Z,20.40
2022-10-31T09:17:00.718Z,20.30
2022-10-31T09:18:21.748Z,20.30
2022-10-31T09:19:37.340Z,20.30
2022-10-31T09:20:43.719Z,20.30
2022-10-31T09:21:48.319Z,20.40
2022-10-31T09:22:59.116Z,20.40
2022-10-31T09:24:07.232Z,20.50
2022-10-31T09:25:10.316Z,20.50
2022-10-31T09:26:16.127Z,20.60
2022-10-31T09:27:37.950Z,20.60
2022-10-31T09:28:42.392Z,20.60
2022-10-31T09:30:55.809Z,20.40
2022-10-31T09:32:19.724Z,20.30
2022-10-31T09:33:24.993Z,20.20
2022-10-31T09:34:46.853Z,20.10
2022-10-31T09:35:54.196Z,20.00
2022-10-31T09:37:00.115Z,20.00
2022-10-31T09:38:06.338Z,20.00
2022-10-31T09:39:10.174Z,20.00
2022-10-31T09:40:14.701Z,20.10
2022-10-31T09:41:27.059Z,20.00
2022-10-31T09:42:58.322Z,20.00
2022-10-31T09:44:16.390Z,19.90
2022-10-31T09:45:27.190Z,19.90
2022-10-31T09:46:43.371Z,19.80
2022-10-31T09:48:05.174Z,19.80
2022-10-31T09:49:35.641Z,19.70
2022-10-31T09:50:45.291Z,19.60
2022-10-31T09:52:26.615Z,19.50
2022-10-31T09:53:43.767Z,19.30
2022-10-31T09:54:54.352Z,19.20
2022-10-31T09:57:04.161Z,18.90
2022-10-31T09:58:14.902Z,18.90
2022-10-31T09:59:26.410Z,18.80
2022-10-31T10:00:29.982Z,18.70
2022-10-31T10:01:48.070Z,18.60
2022-10-31T10:02:57.092Z,18.40
2022-10-31T10:04:03.593Z,18.30
2022-10-31T10:05:38.376Z,18.30
2022-10-31T10:06:51.909Z,18.10
2022-10-31T10:08:25.870Z,18.00
2022-10-31T10:09:55.475Z,17.90
2022-10-31T10:11:38.729Z,17.80
2022-10-31T10:13:18.577Z,17.80
2022-10-31T10:14:42.901Z,17.70
2022-10-31T10:16:11.385Z,17.70
2022-10-31T10:17:30.286Z,17.70
2022-10-31T10:18:41.415Z,17.70
2022-10-31T10:20:06.977Z,17.70
2022-10-31T10:21:28.256Z,17.60
2022-10-31T10:22:39.298Z,17.60
2022-10-31T10:23:59.332Z,17.60
2022-10-31T10:25:17.459Z,17.60
2022-10-31T10:26:23.912Z,17.60
2022-10-31T10:27:43.616Z,17.60
2022-10-31T10:28:52.076Z,17.70
2022-10-31T10:30:04.817Z,17.70
2022-10-31T10:31:15.293Z,17.80
2022-10-31T10:32:25.540Z,17.90
2022-10-31T10:33:34.513Z,18.00
2022-10-31T10:34:42.310Z,18.20
2022-10-31T10:35:49.449Z,18.30
2022-10-31T10:36:57.359Z,18.50
2022-10-31T10:38:16.426Z,18.70
2022-10-31T10:39:26.161Z,18.80
2022-10-31T10:40:29.926Z,19.00
2022-10-31T10:41:35.076Z,19.10
2022-10-31T10:42:56.593Z,19.30
2022-10-31T10:44:01.469Z,19.40
2022-10-31T10:45:34.533Z,19.40
2022-10-31T10:47:15.962Z,19.60
2022-10-31T10:48:41.215Z,19.60
2022-10-31T10:49:52.037Z,19.70
2022-10-31T10:50:54.403Z,19.80
2022-10-31T10:52:19.339Z,19.80
2022-10-31T10:53:50.099Z,19.90
2022-10-31T10:55:06.100Z,19.90
2022-10-31T10:56:17.505Z,19.90
2022-10-31T10:57:37.513Z,19.90
2022-10-31T10:58:42.867Z,19.80
2022-10-31T10:59:46.349Z,19.80
2022-10-31T11:00:50.952Z,19.70
2022-10-31T11:01:53.616Z,19.60
2022-10-31T11:02:57.359Z,19.60
2022-10-31T11:04:04.362Z,19.50
2022-10-31T11:05:23.502Z,19.40
2022-10-31T11:06:27.740Z,19.30
2022-10-31T11:07:41.106Z,19.20
2022-10-31T11:08:44.578Z,19.20
2022-10-31T11:09:51.059Z,19.10
2022-10-31T11:11:03.310Z,19.10
2022-10-31T11:12:11.574Z,19.00
2022-10-31T11:13:24.741Z,19.00
2022-10-31T11:14:29.543Z,19.00
2022-10-31T11:15:36.513Z,18.90
2022-10-31T11:16:43.024Z,18.90
2022-10-31T11:17:51.922Z,18.90
2022-10-31T11:19:06.181Z,18.80
2022-10-31T11:20:33.301Z,18.80
2022-10-31T11:21:36.194Z,18.80
2022-10-31T11:22:39.789Z,18.80
2022-10-31T11:23:42.368Z,18.80
2022-10-31T11:24:46.259Z,18.80
2022-10-31T11:25:56.221Z,18.80
2022-10-31T11:27:16.178Z,18.80
2022-10-31T11:28:18.647Z,18.80
2022-10-31T11:29:25.863Z,18.80
2022-10-31T11:30:29.182Z,18.80
2022-10-31T11:31:34.320Z,18.80
2022-10-31T11:32:36.742Z,18.80
2022-10-31T11:33:46.908Z,18.90
2022-10-31T11:34:54.030Z,18.90
2022-10-31T11:36:03.224Z,19.00
2022-10-31T11:37:14.892Z,19.00
2022-10-31T11:38:22.038Z,19.10
2022-10-31T11:39:25.735Z,19.10
2022-10-31T11:40:31.181Z,19.10
2022-10-31T11:41:39.393Z,19.10
2022-10-31T11:42:43.735Z,19.00
2022-10-31T11:43:54.104Z,19.00
2022-10-31T11:44:58.432Z,19.00
2022-10-31T11:46:10.117Z,19.00
2022-10-31T11:47:18.363Z,18.90
2022-10-31T11:48:25.934Z,18.90
2022-10-31T11:49:37.286Z,18.80
2022-10-31T11:50:43.848Z,18.70
2022-10-31T11:51:55.074Z,18.70
2022-10-31T11:52:58.688Z,18.60
2022-10-31T11:54:04.771Z,18.60
2022-10-31T11:55:19.889Z,18.50
2022-10-31T11:56:22.422Z,18.50
2022-10-31T11:57:29.338Z,18.40
2022-10-31T11:58:31.759Z,18.40
2022-10-31T11:59:35.226Z,18.40
2022-10-31T12:00:39.733Z,18.30
2022-10-31T12:01:50.817Z,18.30
2022-10-31T12:03:12.820Z,18.30
2022-10-31T12:04:17.856Z,18.30
2022-10-31T12:05:25.432Z,18.30
2022-10-31T12:06:34.247Z,18.30
2022-10-31T12:07:39.378Z,18.20
2022-10-31T12:08:43.398Z,18.20
2022-10-31T12:09:47.174Z,18.20
2022-10-31T12:10:59.498Z,18.20
2022-10-31T12:12:36.414Z,18.20
2022-10-31T12:13:50.489Z,18.20
2022-10-31T12:15:12.044Z,18.20
2022-10-31T12:16:21.193Z,18.20
2022-10-31T12:17:37.169Z,18.20
2022-10-31T12:18:58.370Z,18.20
2022-10-31T12:20:14.470Z,18.20
2022-10-31T12:21:34.992Z,18.20
2022-10-31T12:22:50.046Z,18.20
2022-10-31T12:24:07.865Z,18.10
2022-10-31T12:25:35.570Z,18.10
2022-10-31T12:26:46.827Z,18.10
2022-10-31T12:28:09.883Z,18.10
2022-10-31T12:29:30.927Z,18.00
2022-10-31T12:30:51.480Z,18.00
2022-10-31T12:32:15.805Z,18.00
2022-10-31T12:33:46.715Z,18.00
2022-10-31T12:35:23.754Z,18.00
2022-10-31T12:36:40.036Z,18.00
2022-10-31T12:38:05.309Z,18.00
2022-10-31T12:39:27.166Z,18.00
2022-10-31T12:40:55.991Z,18.00
2022-10-31T12:42:09.524Z,18.00
2022-10-31T12:43:34.534Z,18.10
2022-10-31T12:45:15.864Z,18.10
2022-10-31T12:46:32.824Z,18.10
2022-10-31T12:47:54.782Z,18.20
2022-10-31T12:49:30.074Z,18.20
2022-10-31T12:50:49.778Z,18.20
2022-10-31T12:52:12.237Z,18.20
2022-10-31T12:53:33.158Z,18.20
2022-10-31T12:55:01.374Z,18.20
2022-10-31T12:56:21.105Z,18.30
2022-10-31T12:57:37.071Z,18.30
2022-10-31T12:58:50.015Z,18.30
2022-10-31T13:00:02.897Z,18.30
2022-10-31T13:01:14.698Z,18.30
2022-10-31T13:02:24.285Z,18.30
2022-10-31T13:03:34.603Z,18.30
2022-10-31T13:04:46.012Z,18.30
2022-10-31T13:05:55.450Z,18.40
2022-10-31T13:07:04.755Z,18.40
2022-10-31T13:08:12.384Z,18.40
2022-10-31T13:09:23.338Z,18.40
2022-10-31T13:10:33.490Z,18.40
2022-10-31T13:11:41.279Z,18.40
2022-10-31T13:12:46.022Z,18.50
2022-10-31T13:14:02.133Z,18.50
2022-10-31T13:15:18.973Z,18.50
2022-10-31T13:16:31.679Z,18.50
2022-10-31T13:17:40.991Z,18.50
2022-10-31T13:18:50.039Z,18.50
2022-10-31T13:19:55.213Z,18.50
2022-10-31T13:21:02.750Z,18.40
2022-10-31T13:22:11.134Z,18.40
2022-10-31T13:23:48.447Z,18.40
2022-10-31T13:24:56.574Z,18.40
2022-10-31T13:26:09.035Z,18.40
2022-10-31T13:27:20.042Z,18.30
2022-10-31T13:28:35.950Z,18.30
2022-10-31T13:29:48.002Z,18.30
2022-10-31T13:30:55.340Z,18.20
2022-10-31T13:31:58.024Z,18.20
2022-10-31T13:33:10.529Z,18.20
2022-10-31T13:34:26.816Z,18.20
2022-10-31T13:35:41.545Z,18.10
2022-10-31T13:36:50.898Z,18.10
2022-10-31T13:38:07.929Z,18.10
2022-10-31T13:39:25.195Z,18.00
2022-10-31T13:40:44.604Z,18.00
2022-10-31T13:41:53.066Z,18.00
2022-10-31T13:43:06.701Z,18.00
2022-10-31T13:44:17.580Z,18.00
2022-10-31T13:45:24.915Z,17.90
2022-10-31T13:46:39.393Z,17.90
2022-10-31T13:47:44.585Z,17.90
2022-10-31T13:48:47.919Z,17.90
2022-10-31T13:49:50.502Z,17.80
2022-10-31T13:51:03.203Z,17.80
2022-10-31T13:52:26.636Z,17.80
2022-10-31T13:53:44.844Z,17.80
2022-10-31T13:54:52.697Z,17.80
2022-10-31T13:56:15.978Z,17.80
2022-10-31T13:57:24.141Z,17.80
2022-10-31T13:58:29.555Z,17.80
2022-10-31T13:59:38.315Z,17.80
2022-10-31T14:00:40.831Z,17.80
2022-10-31T14:01:54.085Z,17.80
2022-10-31T14:03:00.007Z,17.70
2022-10-31T14:04:14.530Z,17.70
2022-10-31T14:05:27.161Z,17.70
2022-10-31T14:06:54.359Z,17.70
2022-10-31T14:08:00.657Z,17.70
2022-10-31T14:09:03.779Z,17.70
2022-10-31T14:10:22.367Z,17.70
2022-10-31T14:11:34.352Z,17.70
2022-10-31T14:12:42.454Z,17.70
2022-10-31T14:13:47.232Z,17.60
2022-10-31T14:14:54.777Z,17.60
2022-10-31T14:16:03.003Z,17.60
2022-10-31T14:17:06.562Z,17.60
2022-10-31T14:18:25.765Z,17.60
2022-10-31T14:19:28.931Z,17.60
2022-10-31T14:20:43.426Z,17.50
2022-10-31T14:21:47.885Z,17.50
2022-10-31T14:22:51.544Z,17.50
2022-10-31T14:23:58.667Z,17.50
2022-10-31T14:25:04.848Z,17.50
2022-10-31T14:26:35.722Z,17.50
2022-10-31T14:27:49.042Z,17.40
2022-10-31T14:28:52.876Z,17.40
2022-10-31T14:29:56.428Z,17.40
2022-10-31T14:31:00.869Z,17.40
2022-10-31T14:32:15.709Z,17.40
2022-10-31T14:33:21.515Z,17.40
2022-10-31T14:34:32.052Z,17.40
2022-10-31T14:35:56.151Z,17.40
2022-10-31T14:37:17.830Z,17.30
2022-10-31T14:38:41.622Z,17.30
2022-10-31T14:40:09.804Z,17.30
2022-10-31T14:41:55.815Z,17.30
2022-10-31T14:43:28.171Z,17.30
2022-10-31T14:45:08.446Z,17.30
2022-10-31T14:46:26.097Z,17.20
2022-10-31T14:47:41.576Z,17.20
2022-10-31T14:49:06.647Z,17.20
2022-10-31T14:50:33.115Z,17.20
2022-10-31T14:51:41.569Z,17.20
2022-10-31T14:52:50.419Z,17.20
2022-10-31T14:53:58.781Z,17.20
2022-10-31T14:55:03.498Z,17.20
2022-10-31T14:56:13.167Z,17.10
2022-10-31T14:57:23.645Z,17.10
2022-10-31T14:59:51.337Z,17.10
2022-10-31T15:00:58.931Z,17.10
2022-10-31T15:02:11.122Z,17.10
2022-10-31T15:03:20.542Z,17.00
2022-10-31T15:04:26.334Z,17.00
2022-10-31T15:05:30.442Z,17.00
2022-10-31T15:06:43.108Z,17.00
2022-10-31T15:07:53.045Z,17.00
2022-10-31T15:08:56.820Z,17.00
2022-10-31T15:10:02.220Z,16.90
2022-10-31T15:11:13.201Z,16.90
2022-10-31T15:12:28.469Z,16.90
2022-10-31T15:13:30.964Z,16.90
2022-10-31T15:14:34.594Z,16.90
2022-10-31T15:15:38.268Z,16.80
2022-10-31T15:16:45.653Z,16.80
2022-10-31T15:17:52.964Z,16.80